Time;durP1;ratioP1;P1;durP2;ratioP2;P2;SDS_P1;SDS_P2;PMS_P1;PMS_P2;Temp;Humidity;BMP_temperature;BMP_pressure;BME280_temperature;BME280_humidity;BME280_pressure;Samples;Min_cycle;Max_cycle;Signal;HPM_P1;HPM_P2
2023/04/02 00:01:25;;;;;;;6.53;5.78;;;;;;;7.81;100.00;100990.16;5015473;28;20448;-71
2023/04/02 00:03:58;;;;;;;6.68;5.72;;;;;;;7.82;100.00;101001.56;5015085;28;20080;-71
2023/04/02 00:06:32;;;;;;;6.95;5.90;;;;;;;7.83;100.00;101004.22;5013880;28;20041;-71
2023/04/02 00:09:01;;;;;;;7.07;5.90;;;;;;;7.80;99.50;101005.91;5015182;28;20104;-71
2023/04/02 00:11:36;;;;;;;7.05;6.10;;;;;;;7.78;100.00;101012.00;5015153;28;20022;-71
2023/04/02 00:14:04;;;;;;;7.15;6.28;;;;;;;7.81;100.00;101010.31;5015146;28;20030;-71
2023/04/02 00:16:30;;;;;;;8.02;6.13;;;;;;;7.83;100.00;101020.00;5015193;28;20037;-71
2023/04/02 00:19:02;;;;;;;6.95;6.07;;;;;;;7.84;100.00;101020.91;5015024;28;20117;-71
2023/04/02 00:21:30;;;;;;;;;;;;;;;7.88;100.00;101028.91;5015473;28;20467;-71
2023/04/02 00:23:59;;;;;;;8.27;6.80;;;;;;;7.83;99.76;101027.00;5015198;28;19963;-71
2023/04/02 00:26:35;;;;;;;7.88;6.72;;;;;;;7.83;100.00;101037.53;5014742;28;20030;-71
2023/04/02 00:29:03;;;;;;;8.40;6.72;;;;;;;7.80;99.86;101035.72;5015226;28;20104;-71
2023/04/02 00:31:29;;;;;;;7.20;6.47;;;;;;;7.76;100.00;101036.50;5015093;28;20029;-71
2023/04/02 00:33:56;;;;;;;7.45;6.55;;;;;;;7.67;99.35;101045.06;5014817;28;20091;-71
2023/04/02 00:36:25;;;;;;;9.75;7.13;;;;;;;7.62;99.75;101044.00;5014780;28;20100;-71
2023/04/02 00:38:54;;;;;;;8.70;6.47;;;;;;;7.59;99.46;101045.69;5014710;28;20037;-71
2023/04/02 00:41:23;;;;;;;7.65;6.18;;;;;;;7.53;99.30;101054.28;5014527;28;20018;-71
2023/04/02 00:43:53;;;;;;;8.07;6.53;;;;;;;7.53;99.92;101052.56;5014537;28;20544;-71
2023/04/02 00:46:22;;;;;;;7.72;6.47;;;;;;;7.56;99.80;101059.66;5014819;28;20090;-71
2023/04/02 00:48:56;;;;;;;7.30;6.43;;;;;;;7.52;98.88;101066.56;5014563;28;20069;-71
2023/04/02 00:51:37;;;;;;;7.57;6.18;;;;;;;7.50;99.11;101068.28;5014483;28;20124;-71
2023/04/02 00:54:08;;;;;;;7.90;6.13;;;;;;;7.54;99.78;101071.88;5014505;28;20037;-71
2023/04/02 00:56:42;;;;;;;8.18;6.35;;;;;;;7.61;99.13;101080.81;5014486;28;20037;-71
2023/04/02 00:59:21;;;;;;;8.10;6.80;;;;;;;7.56;98.54;101079.78;5014434;28;20108;-71
2023/04/02 01:01:53;;;;;;;7.70;6.88;;;;;;;7.48;97.85;101088.34;5014600;28;20057;-71
2023/04/02 01:04:33;;;;;;;7.82;5.97;;;;;;;7.52;99.32;101094.59;5014001;28;20112;-71
2023/04/02 01:07:06;;;;;;;7.38;6.30;;;;;;;7.53;99.09;101096.38;5014352;28;20116;-71
2023/04/02 01:09:37;;;;;;;;;;;;;;;7.58;99.31;101104.38;5013642;28;20117;-71
2023/04/02 01:12:22;;;;;;;9.07;6.88;;;;;;;7.48;98.43;101109.41;5014214;28;19949;-70
2023/04/02 01:15:09;;;;;;;9.23;6.63;;;;;;;7.47;98.47;101109.38;5014320;28;20073;-70
2023/04/02 01:18:17;;;;;;;8.25;6.25;;;;;;;7.45;98.70;101114.59;5014022;28;20021;-71
2023/04/02 01:21:07;;;;;;;9.77;6.00;;;;;;;7.42;98.47;101113.59;5029060;28;20030;-70
2023/04/02 01:24:03;;;;;;;7.60;5.70;;;;;;;7.42;97.66;101124.13;5014039;28;20026;-70
2023/04/02 01:26:35;;;;;;;7.10;5.70;;;;;;;7.42;97.56;101127.66;5013734;28;20036;-70
2023/04/02 01:29:44;;;;;;;7.90;6.30;;;;;;;7.42;98.08;101127.66;5013828;28;20026;-70
2023/04/02 01:32:16;;;;;;;8.13;6.47;;;;;;;7.43;98.63;101132.03;5006091;28;20029;-70
2023/04/02 01:34:44;;;;;;;8.02;6.22;;;;;;;7.47;98.02;101130.41;5013622;28;20030;-70
2023/04/02 01:37:26;;;;;;;8.43;6.88;;;;;;;7.43;98.48;101142.56;5013573;28;20418;-70
2023/04/02 01:39:57;;;;;;;9.83;7.40;;;;;;;7.37;99.36;101155.53;5013594;28;20407;-70
2023/04/02 01:42:23;;;;;;;8.97;7.30;;;;;;;7.33;96.92;101150.16;5013762;28;20383;-70
2023/04/02 01:44:52;;;;;;;10.50;7.75;;;;;;;7.35;98.22;101156.34;5012151;28;20026;-70
2023/04/02 01:47:27;;;;;;;9.70;7.03;;;;;;;7.30;97.70;101161.47;5013451;28;20079;-70
2023/04/02 01:50:19;;;;;;;8.50;6.80;;;;;;;7.23;97.10;101170.00;5013787;28;20029;-70
2023/04/02 01:52:48;;;;;;;8.25;6.45;;;;;;;7.21;97.09;101176.97;5007783;28;20558;-70
2023/04/02 01:55:19;;;;;;;9.10;6.82;;;;;;;7.13;97.04;101179.34;5013354;28;20129;-70
2023/04/02 01:57:50;;;;;;;8.30;6.72;;;;;;;6.94;97.27;101158.66;5013348;28;20391;-70
2023/04/02 02:00:17;;;;;;;8.50;6.47;;;;;;;7.11;97.80;101188.94;5012145;28;20044;-70
2023/04/02 02:02:47;;;;;;;9.27;5.90;;;;;;;7.10;97.00;101199.41;5028107;28;20045;-70
2023/04/02 02:05:15;;;;;;;7.43;6.05;;;;;;;7.05;97.15;101199.25;5013054;28;20018;-70
2023/04/02 02:07:41;;;;;;;8.27;6.20;;;;;;;6.96;97.12;101186.72;5011881;28;20483;-70
2023/04/02 02:10:16;;;;;;;10.25;6.00;;;;;;;6.96;96.62;101204.22;5012967;28;20073;-70
2023/04/02 02:12:46;;;;;;;7.80;5.50;;;;;;;6.91;97.25;101211.09;5012394;28;20064;-70
2023/04/02 02:15:21;;;;;;;7.72;5.80;;;;;;;6.87;96.97;101209.19;5013223;28;20030;-70
2023/04/02 02:17:48;;;;;;;7.72;5.75;;;;;;;6.89;96.90;101218.00;5013246;28;20041;-70
2023/04/02 02:20:14;;;;;;;6.97;5.53;;;;;;;6.88;96.89;101221.47;5013176;28;20021;-70
2023/04/02 02:22:44;;;;;;;7.03;5.32;;;;;;;6.82;96.76;101223.94;5016471;28;20087;-70
2023/04/02 02:25:26;;;;;;;6.72;4.57;;;;;;;6.85;95.65;101237.13;5017118;28;20030;-70
2023/04/02 02:28:01;;;;;;;6.43;4.82;;;;;;;6.87;97.08;101238.09;5017107;28;20029;-70
2023/04/02 02:30:32;;;;;;;6.03;4.35;;;;;;;6.82;95.84;101239.69;5017104;28;20060;-70
2023/04/02 02:33:17;;;;;;;6.32;4.90;;;;;;;6.88;97.26;101253.00;5017099;28;20041;-70
2023/04/02 02:36:09;;;;;;;5.28;4.55;;;;;;;6.82;95.22;101258.06;5006123;28;20049;-69
2023/04/02 02:38:56;;;;;;;6.88;4.40;;;;;;;6.73;95.23;101259.56;4993751;28;20046;-69
2023/04/02 02:41:27;;;;;;;5.93;4.20;;;;;;;6.73;95.51;101263.91;5017114;28;20053;-69
2023/04/02 02:44:08;;;;;;;6.10;4.60;;;;;;;6.73;95.32;101263.91;5016859;28;20472;-69
2023/04/02 02:46:43;;;;;;;6.25;4.60;;;;;;;6.75;94.08;101264.84;5017022;28;20109;-69
2023/04/02 02:49:15;;;;;;;6.25;4.70;;;;;;;6.76;94.82;101272.75;5015502;28;20026;-69
2023/04/02 02:51:48;;;;;;;7.95;5.55;;;;;;;6.73;94.64;101288.44;5016842;28;20042;-69
2023/04/02 02:54:17;;;;;;;8.95;5.57;;;;;;;6.71;94.88;101289.22;5016667;28;20101;-70
2023/04/02 02:56:48;;;;;;;6.72;5.50;;;;;;;6.72;95.44;101297.19;5014763;28;20041;-70
2023/04/02 02:59:17;;;;;;;7.53;5.60;;;;;;;6.78;96.12;101294.75;5015545;28;20069;-69
2023/04/02 03:01:44;;;;;;;9.18;6.00;;;;;;;6.77;95.21;101290.34;5016554;28;20117;-69
2023/04/02 03:04:10;;;;;;;6.90;6.20;;;;;;;6.77;94.92;101303.47;5016551;28;20065;-69
2023/04/02 03:06:39;;;;;;;7.65;6.45;;;;;;;6.81;96.34;101301.84;5016518;28;20072;-69
2023/04/02 03:09:48;;;;;;;9.70;6.70;;;;;;;6.79;95.55;101314.00;5016361;28;20135;-69
2023/04/02 03:12:33;;;;;;;10.10;6.78;;;;;;;6.72;96.39;101305.06;4955897;29;20035;-69
2023/04/02 03:15:07;;;;;;;9.52;6.53;;;;;;;6.70;95.49;101321.59;5030867;28;20038;-69
2023/04/02 03:17:46;;;;;;;9.95;6.55;;;;;;;6.71;96.40;101315.47;5016263;28;20030;-69
2023/04/02 03:20:21;;;;;;;10.13;6.70;;;;;;;6.67;95.17;101326.72;5015012;28;20026;-69
2023/04/02 03:22:55;;;;;;;8.80;6.57;;;;;;;6.65;95.32;101331.94;5016112;28;20446;-69
2023/04/02 03:25:47;;;;;;;8.32;7.00;;;;;;;6.57;95.49;101343.00;5015922;28;20021;-69
2023/04/02 03:28:18;;;;;;;10.00;6.57;;;;;;;6.51;95.30;101343.69;5014798;28;20061;-69
2023/04/02 03:30:50;;;;;;;7.53;6.10;;;;;;;6.49;95.08;101362.00;5014877;28;20034;-69
2023/04/02 03:33:27;;;;;;;7.97;6.20;;;;;;;6.49;95.03;101359.38;5015181;28;20036;-69
2023/04/02 03:36:12;;;;;;;8.48;6.32;;;;;;;6.51;94.92;101373.47;5015831;28;20030;-69
2023/04/02 03:38:45;;;;;;;9.18;6.10;;;;;;;6.51;96.23;101376.09;5016100;28;20113;-69
2023/04/02 03:41:28;;;;;;;9.23;7.45;;;;;;;6.46;95.24;101382.00;5015812;28;20029;-69
2023/04/02 03:43:57;;;;;;;9.85;5.95;;;;;;;6.43;95.66;101388.06;5015895;28;20104;-68
2023/04/02 03:46:31;;;;;;;7.65;6.10;;;;;;;6.49;95.55;101390.00;5015619;28;20045;-69
2023/04/02 03:49:02;;;;;;;8.80;6.57;;;;;;;6.53;94.82;101405.91;5015757;28;20037;-69
2023/04/02 03:51:39;;;;;;;9.13;6.38;;;;;;;6.48;95.19;101398.72;5015692;28;20033;-68
2023/04/02 03:54:12;;;;;;;9.38;6.45;;;;;;;6.47;95.50;101415.31;5015589;28;20026;-69
2023/04/02 03:56:41;;;;;;;8.35;6.40;;;;;;;6.41;94.81;101423.84;5015553;28;20052;-69
2023/04/02 03:59:24;;;;;;;9.57;6.80;;;;;;;6.39;94.75;101425.53;5014292;28;20061;-69
2023/04/02 04:02:21;;;;;;;7.97;6.30;;;;;;;6.33;95.52;101427.00;5015515;28;20126;-69
2023/04/02 04:04:49;;;;;;;10.25;6.35;;;;;;;6.22;95.35;101429.25;5012242;28;20547;-69
2023/04/02 04:07:31;;;;;;;9.75;6.38;;;;;;;6.16;95.45;101431.63;5015461;28;20494;-69
2023/04/02 04:10:00;;;;;;;8.40;6.40;;;;;;;6.19;95.25;101442.25;5013708;28;20423;-69
2023/04/02 04:12:34;;;;;;;9.18;6.70;;;;;;;6.24;95.53;101443.31;5015249;28;20032;-69
2023/04/02 04:15:21;;;;;;;11.40;6.95;;;;;;;6.20;94.94;101444.91;5015222;28;20383;-69
2023/04/02 04:17:55;;;;;;;9.02;7.00;;;;;;;6.19;94.82;101450.13;5015525;28;20383;-69
2023/04/02 04:20:28;;;;;;;11.73;6.72;;;;;;;6.20;94.75;101459.78;5015153;28;20033;-69
2023/04/02 04:22:54;;;;;;;11.82;7.15;;;;;;;6.21;94.90;101461.56;5015118;28;20061;-69
2023/04/02 04:25:32;;;;;;;9.23;6.82;;;;;;;6.24;95.38;101470.44;5015032;28;20037;-69
2023/04/02 04:28:04;;;;;;;9.52;6.45;;;;;;;6.25;95.29;101484.44;5013658;28;20034;-69
2023/04/02 04:30:45;;;;;;;8.73;6.40;;;;;;;6.22;94.92;101485.25;5014899;28;20381;-69
2023/04/02 04:33:23;;;;;;;8.70;6.43;;;;;;;6.07;93.49;101489.00;5015111;28;20045;-69
2023/04/02 04:35:54;;;;;;;7.68;5.45;;;;;;;6.03;94.06;101490.59;5014882;28;20026;-69
2023/04/02 04:38:33;;;;;;;7.70;5.25;;;;;;;6.03;93.55;101498.47;5014701;28;20021;-69
2023/04/02 04:41:23;;;;;;;6.95;5.28;;;;;;;5.96;94.06;101502.59;5014609;28;20034;-69
2023/04/02 04:44:00;;;;;;;10.07;5.63;;;;;;;5.96;92.89;101507.84;5014575;28;20475;-69
2023/04/02 04:46:35;;;;;;;8.25;5.57;;;;;;;6.04;94.01;101526.53;5014800;28;20032;-68
2023/04/02 04:49:09;;;;;;;7.30;5.30;;;;;;;6.06;93.66;101524.84;5014366;28;20476;-69
2023/04/02 04:51:46;;;;;;;7.30;5.35;;;;;;;6.07;93.67;101534.50;5014411;28;20396;-69
2023/04/02 04:54:13;;;;;;;7.88;5.47;;;;;;;6.00;93.19;101546.47;5014429;28;20026;-69
2023/04/02 04:56:43;;;;;;;8.13;5.60;;;;;;;5.99;93.43;101541.16;5014253;28;20041;-68
2023/04/02 04:59:31;;;;;;;9.32;5.63;;;;;;;5.95;93.44;101545.41;5014361;28;20084;-69
2023/04/02 05:02:02;;;;;;;10.32;5.90;;;;;;;5.91;92.95;101558.28;5014369;28;20056;-69
2023/04/02 05:04:34;;;;;;;10.85;5.95;;;;;;;5.88;93.47;101555.53;5013881;28;20042;-69
2023/04/02 05:07:12;;;;;;;9.10;5.45;;;;;;;5.83;92.98;101557.09;5014231;28;20042;-69
2023/04/02 05:09:43;;;;;;;8.45;5.60;;;;;;;5.83;93.65;101563.22;5013999;28;20568;-69
2023/04/02 05:12:44;;;;;;;8.07;5.15;;;;;;;5.89;92.84;101573.97;5013902;28;20037;-69
2023/04/02 05:15:25;;;;;;;8.13;5.35;;;;;;;5.88;92.17;101579.16;5005833;28;20120;-69
2023/04/02 05:18:22;;;;;;;6.17;5.10;;;;;;;5.86;92.18;101586.94;5013979;28;20046;-69
2023/04/02 05:20:57;;;;;;;9.10;5.45;;;;;;;5.90;93.33;101591.47;5013884;28;20038;-69
2023/04/02 05:23:27;;;;;;;7.80;4.85;;;;;;;5.89;92.58;101601.91;5013921;28;20026;-68
2023/04/02 05:26:02;;;;;;;7.30;5.50;;;;;;;5.84;92.35;101604.34;5013692;28;20018;-69
2023/04/02 05:28:37;;;;;;;8.38;5.32;;;;;;;5.84;90.61;101609.59;5013887;28;20033;-69
2023/04/02 05:31:11;;;;;;;9.02;4.95;;;;;;;5.87;92.19;101603.59;5012560;28;20041;-69
2023/04/02 05:33:38;;;;;;;8.73;5.30;;;;;;;5.96;91.20;101615.41;5013535;28;20026;-68
2023/04/02 05:36:08;;;;;;;7.90;5.00;;;;;;;5.99;91.84;101614.59;5013655;28;20376;-69
2023/04/02 05:38:37;;;;;;;7.68;5.20;;;;;;;5.92;89.97;101621.34;5013955;28;20034;-69
2023/04/02 05:41:25;;;;;;;8.00;5.22;;;;;;;5.93;90.57;101628.38;5013732;28;20034;-69
2023/04/02 05:44:00;;;;;;;6.40;5.15;;;;;;;5.92;90.03;101630.94;5013525;28;20026;-69
2023/04/02 05:46:32;;;;;;;9.70;5.22;;;;;;;5.96;90.57;101631.13;5013485;28;20018;-69
2023/04/02 05:48:58;;;;;;;;;;;;;;;6.06;91.15;101644.63;5014034;28;20037;-69
2023/04/02 05:51:30;;;;;;;8.15;6.10;;;;;;;6.02;89.82;101638.34;5013706;28;19909;-69
2023/04/02 05:54:02;;;;;;;9.68;5.93;;;;;;;5.98;90.45;101647.81;5013521;28;20032;-69
2023/04/02 05:56:41;;;;;;;8.52;6.13;;;;;;;5.97;89.95;101650.38;5012741;28;20116;-69
2023/04/02 05:59:15;;;;;;;9.80;6.47;;;;;;;5.96;90.97;101660.00;5013397;28;20021;-69
2023/04/02 06:02:15;;;;;;;9.35;6.20;;;;;;;5.99;90.54;101675.84;5013364;28;20022;-69
2023/04/02 06:04:54;;;;;;;9.82;6.72;;;;;;;5.95;90.71;101678.25;4981020;28;20472;-69
2023/04/02 06:07:29;;;;;;;9.75;6.65;;;;;;;5.91;90.31;101684.16;5013411;28;20124;-69
2023/04/02 06:10:10;;;;;;;11.10;6.85;;;;;;;5.84;89.27;101693.53;5013088;28;20045;-68
2023/04/02 06:13:01;;;;;;;11.13;6.70;;;;;;;5.77;89.95;101701.94;5013185;28;20036;-69
2023/04/02 06:15:26;;;;;;;10.65;6.43;;;;;;;5.74;89.00;101705.34;5013140;28;20037;-69
2023/04/02 06:17:58;;;;;;;12.13;6.05;;;;;;;5.66;87.82;101705.84;5013149;28;20053;-69
2023/04/02 06:20:25;;;;;;;10.90;6.88;;;;;;;5.63;88.37;101713.56;5013250;28;20125;-69
2023/04/02 06:22:55;;;;;;;9.73;6.75;;;;;;;5.61;89.05;101718.75;5013100;28;20109;-69
2023/04/02 06:25:31;;;;;;;10.57;6.63;;;;;;;5.64;89.06;101717.97;5012885;28;20526;-68
2023/04/02 06:28:00;;;;;;;11.63;6.35;;;;;;;5.72;88.30;101725.34;5013286;28;20061;-68
2023/04/02 06:30:32;;;;;;;10.63;6.07;;;;;;;5.74;87.96;101734.19;5013028;28;20426;-68
2023/04/02 06:32:58;;;;;;;9.57;5.95;;;;;;;5.73;87.61;101744.59;5013066;28;20044;-69
2023/04/02 06:35:23;;;;;;;10.60;5.82;;;;;;;5.75;88.48;101742.94;5012800;28;20026;-68
2023/04/02 06:37:53;;;;;;;10.90;5.90;;;;;;;5.65;87.47;101744.28;5013387;28;20553;-69
2023/04/02 06:40:30;;;;;;;14.25;6.32;;;;;;;5.74;88.42;101752.53;5012872;28;20049;-69
2023/04/02 06:42:59;;;;;;;11.15;6.00;;;;;;;5.82;89.07;101755.50;5012969;28;20022;-68
2023/04/02 06:45:32;;;;;;;9.18;5.57;;;;;;;5.88;88.25;101763.66;5012771;28;20022;-69
2023/04/02 06:48:01;;;;;;;8.63;5.50;;;;;;;5.79;85.91;101758.00;5012977;28;20472;-68
2023/04/02 06:50:58;;;;;;;8.75;5.18;;;;;;;5.74;86.54;101767.38;5012814;28;20018;-68
2023/04/02 06:53:33;;;;;;;9.60;5.38;;;;;;;5.70;86.16;101787.31;5011609;28;20057;-68
2023/04/02 06:56:21;;;;;;;11.30;5.40;;;;;;;5.77;86.75;101788.47;5012789;28;20385;-69
2023/04/02 06:58:46;;;;;;;8.88;5.30;;;;;;;5.72;86.54;101800.50;5012983;28;20395;-69
2023/04/02 07:01:24;;;;;;;11.02;5.10;;;;;;;5.75;85.88;101805.88;5012721;28;20484;-69
2023/04/02 07:03:50;;;;;;;7.80;4.60;;;;;;;5.77;86.26;101812.09;5012648;28;20052;-68
2023/04/02 07:06:19;;;;;;;9.57;4.43;;;;;;;5.67;84.82;101816.03;5012939;28;20049;-68
2023/04/02 07:08:44;;;;;;;7.78;4.25;;;;;;;5.68;85.42;101824.78;5015604;28;20380;-68
2023/04/02 07:11:21;;;;;;;6.72;4.28;;;;;;;5.70;85.78;101829.28;5016232;28;20030;-68
2023/04/02 07:13:47;;;;;;;6.93;4.32;;;;;;;5.71;85.74;101838.03;5016304;28;20025;-68
2023/04/02 07:16:24;;;;;;;8.80;4.60;;;;;;;5.66;84.76;101847.44;5016247;28;20038;-68
2023/04/02 07:18:51;;;;;;;8.95;4.45;;;;;;;5.60;84.64;101857.59;5016252;28;20489;-69
2023/04/02 07:21:19;;;;;;;9.80;5.22;;;;;;;5.58;84.83;101868.03;5014859;28;20026;-68
2023/04/02 07:23:45;;;;;;;9.82;6.20;;;;;;;5.64;86.57;101870.94;5016159;28;20018;-68
2023/04/02 07:26:16;;;;;;;11.80;4.18;;;;;;;5.65;83.79;101869.19;5015928;28;20037;-68
2023/04/02 07:28:42;;;;;;;6.65;3.55;;;;;;;5.57;83.85;101881.03;5016009;28;20026;-68
2023/04/02 07:31:18;;;;;;;7.45;3.80;;;;;;;5.48;84.05;101871.94;5016207;28;20026;-68
2023/04/02 07:33:44;;;;;;;8.98;3.60;;;;;;;5.47;83.12;101885.84;5014330;28;20033;-68
2023/04/02 07:36:22;;;;;;;6.85;3.63;;;;;;;5.38;82.56;101888.03;5015839;28;20037;-68
2023/04/02 07:38:48;;;;;;;7.20;3.33;;;;;;;5.33;83.47;101891.28;5015854;28;20033;-68
2023/04/02 07:41:14;;;;;;;6.78;3.65;;;;;;;5.30;83.18;101889.38;5015730;28;20407;-68
2023/04/02 07:43:41;;;;;;;7.63;3.30;;;;;;;5.31;84.00;101893.81;5014564;28;20029;-68
2023/04/02 07:46:07;;;;;;;6.05;3.28;;;;;;;5.35;83.63;101898.38;5015688;28;20028;-68
2023/04/02 07:48:33;;;;;;;6.80;3.72;;;;;;;5.42;84.01;101912.69;5015790;28;20028;-68
2023/04/02 07:50:59;;;;;;;8.63;3.70;;;;;;;5.45;83.73;101910.22;5015669;28;20025;-68
2023/04/02 07:53:30;;;;;;;7.80;3.40;;;;;;;5.47;83.01;101908.56;5015578;28;20030;-68
2023/04/02 07:55:58;;;;;;;7.22;3.63;;;;;;;5.45;82.47;101907.59;5015691;28;20026;-68
2023/04/02 07:58:24;;;;;;;6.35;3.50;;;;;;;5.46;82.39;101912.91;5015494;28;20026;-68
2023/04/02 08:00:49;;;;;;;6.45;3.25;;;;;;;5.52;82.93;101918.47;5015521;28;20502;-69
2023/04/02 08:03:15;;;;;;;4.53;3.10;;;;;;;5.55;81.63;101929.91;5015338;28;20026;-69
2023/04/02 08:05:40;;;;;;;6.70;3.08;;;;;;;5.56;82.76;101929.06;5015104;28;20026;-69
2023/04/02 08:08:06;;;;;;;6.15;3.00;;;;;;;5.63;83.12;101932.06;5015225;28;20037;-69
2023/04/02 08:10:31;;;;;;;8.13;3.17;;;;;;;5.69;82.17;101940.22;5014774;28;20089;-69
2023/04/02 08:12:57;;;;;;;6.63;3.00;;;;;;;5.71;81.29;101941.22;5015231;28;20049;-69
2023/04/02 08:15:22;;;;;;;7.30;3.22;;;;;;;5.75;81.25;101947.50;5013916;28;20026;-69
2023/04/02 08:17:49;;;;;;;6.85;3.10;;;;;;;5.76;82.75;101951.91;5014969;28;20030;-69
2023/04/02 08:20:20;;;;;;;6.38;2.95;;;;;;;5.78;82.02;101950.25;5014685;28;20073;-69
2023/04/02 08:22:49;;;;;;;5.95;3.00;;;;;;;5.75;81.34;101955.38;5015097;28;20034;-68
2023/04/02 08:25:15;;;;;;;5.72;2.88;;;;;;;5.73;81.91;101960.50;5014727;28;20533;-68
2023/04/02 08:27:41;;;;;;;7.50;2.88;;;;;;;5.79;82.13;101967.81;5014866;28;20044;-68
2023/04/02 08:30:07;;;;;;;6.82;3.15;;;;;;;5.85;81.19;101975.94;5014890;28;20463;-68
2023/04/02 08:32:33;;;;;;;7.88;2.95;;;;;;;5.85;82.00;101985.56;5014830;28;20037;-68
2023/04/02 08:34:58;;;;;;;7.60;3.20;;;;;;;5.85;82.06;101983.81;5021936;28;20029;-68
2023/04/02 08:37:24;;;;;;;4.63;3.00;;;;;;;5.82;81.52;101988.00;5034448;28;20044;-68
2023/04/02 08:39:49;;;;;;;6.72;3.20;;;;;;;5.87;81.83;101991.78;5034760;28;20020;-68
2023/04/02 08:42:22;;;;;;;7.75;3.30;;;;;;;5.93;81.85;101998.25;5034347;28;20080;-69
2023/04/02 08:45:05;;;;;;;6.22;2.90;;;;;;;6.05;82.49;102011.06;5033344;28;20053;-68
2023/04/02 08:47:35;;;;;;;12.63;3.60;;;;;;;6.19;82.30;102017.84;5034333;28;20142;-68
2023/04/02 08:50:06;;;;;;;8.02;3.33;;;;;;;6.25;81.06;102019.84;5034617;28;20064;-68
2023/04/02 08:52:36;;;;;;;7.32;3.00;;;;;;;6.27;81.49;102026.09;5034094;28;20030;-68
2023/04/02 08:55:03;;;;;;;7.85;3.10;;;;;;;6.28;81.04;102033.13;5034346;28;20029;-68
2023/04/02 08:57:31;;;;;;;8.43;3.22;;;;;;;6.26;79.28;102032.19;5032782;28;20025;-68
2023/04/02 09:00:26;;;;;;;10.02;3.35;;;;;;;6.24;81.18;102042.56;5034140;28;20037;-68
2023/04/02 09:02:56;;;;;;;6.20;3.00;;;;;;;6.18;78.89;102049.28;5024953;28;20030;-68
2023/04/02 09:05:31;;;;;;;7.70;3.03;;;;;;;6.13;78.82;102050.78;5033732;28;20029;-68
2023/04/02 09:08:00;;;;;;;8.25;3.20;;;;;;;6.24;81.29;102052.19;5033967;28;20049;-68
2023/04/02 09:10:36;;;;;;;4.10;2.60;;;;;;;6.33;79.48;102062.22;5033500;28;20084;-68
2023/04/02 09:13:06;;;;;;;6.03;2.70;;;;;;;6.35;79.12;102069.34;5034009;28;20035;-68
2023/04/02 09:15:34;;;;;;;6.85;2.70;;;;;;;6.39;79.13;102070.41;5033879;28;20459;-68
2023/04/02 09:18:12;;;;;;;6.05;3.10;;;;;;;6.38;80.17;102071.19;5033652;28;20024;-68
2023/04/02 09:20:38;;;;;;;9.63;3.80;;;;;;;6.43;78.66;102080.22;5033730;28;20033;-68
2023/04/02 09:23:07;;;;;;;8.48;3.65;;;;;;;6.42;80.09;102073.16;5033578;28;20083;-68
2023/04/02 09:25:33;;;;;;;5.28;3.10;;;;;;;6.51;80.16;102085.00;5032326;28;20029;-67
2023/04/02 09:28:03;;;;;;;7.05;3.40;;;;;;;6.50;79.03;102091.06;5033451;28;20087;-68
2023/04/02 09:30:29;;;;;;;7.95;3.22;;;;;;;6.49;77.20;102099.78;5033059;28;20021;-69
2023/04/02 09:32:57;;;;;;;6.63;3.30;;;;;;;6.41;77.29;102108.13;5031118;28;20033;-68
2023/04/02 09:35:25;;;;;;;8.27;4.15;;;;;;;6.38;78.27;102110.59;5031422;28;20063;-68
2023/04/02 09:38:06;;;;;;;8.57;3.00;;;;;;;6.34;79.30;102113.88;5031847;28;20029;-68
2023/04/02 09:40:42;;;;;;;8.13;3.70;;;;;;;6.39;79.84;102115.03;5031739;28;20017;-67
2023/04/02 09:43:22;;;;;;;6.85;3.50;;;;;;;6.50;79.99;102125.19;5031768;28;20391;-68
2023/04/02 09:46:24;;;;;;;3.95;2.85;;;;;;;6.55;78.46;102122.78;5031631;28;20483;-68
2023/04/02 09:48:57;;;;;;;4.82;2.83;;;;;;;6.37;78.40;102130.69;5032949;28;20116;-68
2023/04/02 09:51:24;;;;;;;;;;;;;;;6.43;78.83;102136.25;5033620;28;20034;-68
2023/04/02 09:54:05;;;;;;;5.70;2.88;;;;;;;6.41;78.26;102140.50;5033138;28;19908;-68
2023/04/02 09:56:36;;;;;;;5.82;3.05;;;;;;;6.33;78.97;102140.97;5033345;28;20030;-68
2023/04/02 09:59:06;;;;;;;9.10;3.30;;;;;;;6.23;78.11;102145.78;5033391;28;20022;-67
2023/04/02 10:01:33;;;;;;;6.05;2.80;;;;;;;6.22;79.13;102150.97;5033079;28;20035;-68
2023/04/02 10:04:00;;;;;;;7.38;3.30;;;;;;;6.22;79.70;102153.59;5033009;28;20026;-67
2023/04/02 10:06:30;;;;;;;5.05;2.80;;;;;;;6.20;78.73;102160.47;5032921;28;20105;-68
2023/04/02 10:08:56;;;;;;;5.38;2.97;;;;;;;6.28;80.23;102164.38;5032864;28;20044;-68
2023/04/02 10:11:34;;;;;;;6.03;3.00;;;;;;;6.35;78.94;102161.22;5032812;28;20033;-68
2023/04/02 10:14:02;;;;;;;7.82;3.20;;;;;;;6.37;78.36;102164.81;5032809;28;20091;-67
2023/04/02 10:16:37;;;;;;;4.88;2.70;;;;;;;6.42;79.32;102165.94;5032756;28;20025;-68
2023/04/02 10:19:14;;;;;;;5.70;3.00;;;;;;;6.48;78.59;102163.63;5032896;28;20044;-67
2023/04/02 10:21:46;;;;;;;4.75;2.80;;;;;;;6.57;79.19;102168.41;5032755;28;20060;-67
2023/04/02 10:24:13;;;;;;;8.07;2.83;;;;;;;6.58;78.11;102175.47;5032843;28;20021;-69
2023/04/02 10:26:44;;;;;;;5.95;2.85;;;;;;;6.56;77.89;102173.63;5031688;28;20040;-68
2023/04/02 10:29:37;;;;;;;5.93;3.10;;;;;;;6.67;78.13;102180.25;5032702;28;20029;-68
2023/04/02 10:32:10;;;;;;;6.07;2.50;;;;;;;6.79;77.64;102180.84;5032893;28;20030;-68
2023/04/02 10:35:12;;;;;;;4.90;2.80;;;;;;;6.86;76.76;102182.06;5031227;28;20132;-68
2023/04/02 10:38:01;;;;;;;7.22;3.00;;;;;;;6.89;77.04;102197.94;5032646;28;20040;-68
2023/04/02 10:40:33;;;;;;;6.38;3.10;;;;;;;6.84;77.02;102202.09;5032499;28;20037;-68
2023/04/02 10:43:07;;;;;;;9.73;5.55;;;;;;;6.74;75.43;102204.28;5034684;28;20377;-67
2023/04/02 10:45:48;;;;;;;6.93;4.00;;;;;;;6.69;76.22;102218.91;5036533;28;20049;-67
2023/04/02 10:48:23;;;;;;;8.13;3.47;;;;;;;6.65;76.67;102216.97;5036613;28;20017;-67
2023/04/02 10:50:54;;;;;;;6.00;3.53;;;;;;;6.67;77.01;102222.28;5036258;28;20044;-66
2023/04/02 10:53:31;;;;;;;8.70;3.60;;;;;;;6.58;76.05;102216.59;5036625;28;20025;-67
2023/04/02 10:56:02;;;;;;;4.93;2.72;;;;;;;6.63;77.05;102226.47;5036271;28;20387;-67
2023/04/02 10:58:30;;;;;;;6.03;2.90;;;;;;;6.62;75.70;102221.16;5035431;28;20041;-67
2023/04/02 11:01:03;;;;;;;4.95;2.83;;;;;;;6.71;75.31;102222.50;5036515;28;20046;-66
2023/04/02 11:03:44;;;;;;;6.45;3.22;;;;;;;6.81;75.54;102212.44;5036561;28;20032;-67
2023/04/02 11:06:21;;;;;;;4.72;2.92;;;;;;;6.86;74.53;102214.47;5036014;28;20480;-67
2023/04/02 11:08:50;;;;;;;12.52;3.85;;;;;;;6.97;73.79;102228.09;5034693;28;20032;-67
2023/04/02 11:11:22;;;;;;;10.93;3.78;;;;;;;7.00;73.75;102221.28;5036194;28;20029;-66
2023/04/02 11:14:11;;;;;;;11.85;5.65;;;;;;;7.09;74.36;102233.06;5034864;28;20133;-66
2023/04/02 11:16:37;;;;;;;6.00;3.17;;;;;;;7.32;76.00;102237.63;5036100;28;20036;-68
2023/04/02 11:19:17;;;;;;;6.47;2.88;;;;;;;7.43;73.03;102243.41;5035887;28;20021;-67
2023/04/02 11:21:59;;;;;;;9.90;4.53;;;;;;;7.69;75.12;102252.47;5035883;28;20095;-67
2023/04/02 11:24:31;;;;;;;9.60;4.40;;;;;;;7.93;73.78;102255.31;5036128;28;20040;-66
2023/04/02 11:27:09;;;;;;;7.20;2.90;;;;;;;8.23;75.12;102259.28;5035931;28;20049;-67
2023/04/02 11:30:03;;;;;;;4.78;2.50;;;;;;;8.35;72.21;102263.25;5035932;28;20483;-67
2023/04/02 11:32:38;;;;;;;4.18;2.50;;;;;;;8.25;71.94;102262.88;5035611;28;20510;-66
2023/04/02 11:35:24;;;;;;;4.65;2.50;;;;;;;8.25;71.93;102265.50;5035698;28;20083;-67
2023/04/02 11:37:51;;;;;;;4.28;2.45;;;;;;;8.32;71.64;102257.88;5035675;28;20549;-67
2023/04/02 11:40:16;;;;;;;4.53;2.55;;;;;;;8.42;71.61;102268.00;5034309;28;20048;-67
2023/04/02 11:42:49;;;;;;;5.88;2.60;;;;;;;8.49;71.05;102277.97;5035481;28;20475;-67
2023/04/02 11:45:24;;;;;;;5.05;2.67;;;;;;;8.55;71.14;102279.94;5035473;28;20032;-66
2023/04/02 11:47:59;;;;;;;4.57;2.67;;;;;;;8.50;69.71;102293.81;5035567;28;20037;-67
2023/04/02 11:50:44;;;;;;;4.20;2.60;;;;;;;8.43;69.70;102285.59;5035422;28;20064;-68
2023/04/02 11:53:13;;;;;;;5.18;2.50;;;;;;;8.25;68.79;102297.09;5035540;28;20025;-68
2023/04/02 11:55:43;;;;;;;4.57;2.45;;;;;;;8.19;69.44;102295.94;5034873;28;20112;-66
2023/04/02 11:58:33;;;;;;;4.10;2.45;;;;;;;8.29;71.43;102295.50;5035646;28;20048;-66
2023/04/02 12:00:58;;;;;;;7.43;3.00;;;;;;;8.35;70.13;102287.88;5035198;28;20025;-66
2023/04/02 12:03:38;;;;;;;6.82;3.00;;;;;;;8.34;70.58;102299.22;5035227;28;20156;-66
2023/04/02 12:06:38;;;;;;;9.95;3.67;;;;;;;8.25;69.39;102305.00;5034965;28;20029;-65